createdAt,value
2019-02-28T00:02:12.157Z,10.17
2019-02-28T00:04:41.721Z,10.13
2019-02-28T00:07:11.316Z,10.13
2019-02-28T00:09:40.868Z,10.12
2019-02-28T00:12:13.537Z,10.11
2019-02-28T00:14:42.109Z,10.06
2019-02-28T00:17:11.589Z,10.04
2019-02-28T00:19:41.069Z,9.98
2019-02-28T00:22:11.427Z,9.98
2019-02-28T00:24:41.702Z,9.94
2019-02-28T00:27:11.204Z,9.93
2019-02-28T00:29:40.700Z,9.87
2019-02-28T00:32:10.742Z,9.85
2019-02-28T00:34:40.234Z,9.83
2019-02-28T00:37:09.663Z,9.82
2019-02-28T00:47:16.504Z,9.80
2019-02-28T00:49:45.376Z,9.73
2019-02-28T00:52:14.851Z,9.68
2019-02-28T00:54:44.564Z,9.65
2019-02-28T00:57:14.023Z,9.62
2019-02-28T00:59:43.501Z,9.60
2019-02-28T01:02:12.930Z,9.58
2019-02-28T01:04:42.415Z,9.53
2019-02-28T01:07:13.268Z,9.53
2019-02-28T01:09:43.037Z,9.50
2019-02-28T01:12:18.742Z,9.46
2019-02-28T01:14:43.785Z,9.44
2019-02-28T01:17:13.261Z,9.40
2019-02-28T01:19:43.534Z,9.34
2019-02-28T01:22:13.134Z,9.29
2019-02-28T01:24:42.621Z,9.26
2019-02-28T01:27:12.055Z,9.21
2019-02-28T01:29:41.495Z,9.13
2019-02-28T01:32:15.255Z,9.07
2019-02-28T01:34:42.246Z,9.03
2019-02-28T01:37:11.721Z,8.99
2019-02-28T01:39:41.156Z,8.96
2019-02-28T01:42:10.632Z,8.92
2019-02-28T01:44:40.070Z,8.84
2019-02-28T01:47:09.535Z,8.84
2019-02-28T01:49:38.994Z,8.79
2019-02-28T01:52:10.167Z,8.77
2019-02-28T01:54:39.609Z,8.75
2019-02-28T01:57:10.034Z,8.72
2019-02-28T01:59:39.506Z,8.66
2019-02-28T02:02:09.111Z,8.61
2019-02-28T02:04:40.322Z,8.57
2019-02-28T02:07:10.164Z,8.52
2019-02-28T02:09:42.735Z,8.47
2019-02-28T02:12:10.909Z,8.43
2019-02-28T02:14:44.694Z,8.39
2019-02-28T02:17:11.540Z,8.36
2019-02-28T02:19:40.977Z,8.34
2019-02-28T02:22:10.543Z,8.30
2019-02-28T02:24:40.000Z,8.31
2019-02-28T02:27:09.475Z,8.27
2019-02-28T02:29:38.907Z,8.24
2019-02-28T02:32:08.387Z,8.22
2019-02-28T02:34:37.826Z,8.17
2019-02-28T02:37:08.306Z,8.13
2019-02-28T02:39:37.900Z,8.08
2019-02-28T02:42:11.440Z,8.04
2019-02-28T02:44:38.513Z,8.01
2019-02-28T02:47:07.974Z,7.98
2019-02-28T02:49:37.503Z,7.96
2019-02-28T02:52:07.056Z,7.93
2019-02-28T02:54:36.526Z,7.92
2019-02-28T02:57:06.112Z,7.89
2019-02-28T02:59:38.978Z,7.86
2019-02-28T03:02:06.751Z,7.86
2019-02-28T03:04:36.238Z,7.85
2019-02-28T03:07:05.716Z,7.86
2019-02-28T03:09:35.288Z,7.85
2019-02-28T03:12:04.885Z,7.84
2019-02-28T03:14:34.308Z,7.84
2019-02-28T03:17:09.592Z,7.83
2019-02-28T03:19:34.904Z,7.83
2019-02-28T03:22:04.349Z,7.81
2019-02-28T03:24:33.844Z,7.80
2019-02-28T03:27:03.293Z,7.79
2019-02-28T03:29:32.735Z,7.77
2019-02-28T03:32:02.204Z,7.77
2019-02-28T03:34:31.719Z,7.76
2019-02-28T03:37:01.155Z,7.79
2019-02-28T03:39:30.590Z,7.82
2019-02-28T03:42:00.501Z,7.82
2019-02-28T03:44:29.969Z,7.82
2019-02-28T03:46:59.451Z,7.85
2019-02-28T03:49:28.910Z,7.86
2019-02-28T03:52:05.598Z,7.86
2019-02-28T03:54:30.152Z,7.86
2019-02-28T03:56:59.903Z,7.86
2019-02-28T03:59:29.347Z,7.86
2019-02-28T04:01:58.819Z,7.85
2019-02-28T04:04:28.364Z,7.84
2019-02-28T04:06:57.916Z,7.83
2019-02-28T04:09:27.404Z,7.81
2019-02-28T04:11:56.861Z,7.79
2019-02-28T04:14:28.613Z,7.76
2019-02-28T04:16:57.458Z,7.76
2019-02-28T04:19:27.412Z,7.75
2019-02-28T04:21:56.840Z,7.74
2019-02-28T04:24:26.278Z,7.72
2019-02-28T04:26:55.761Z,7.69
2019-02-28T04:29:29.829Z,7.66
2019-02-28T04:31:58.028Z,7.63
2019-02-28T04:34:27.657Z,7.60
2019-02-28T04:36:57.140Z,7.57
2019-02-28T04:39:26.780Z,7.55
2019-02-28T04:41:56.258Z,7.52
2019-02-28T04:44:25.711Z,7.50
2019-02-28T04:46:55.269Z,7.46
2019-02-28T04:49:24.817Z,7.45
2019-02-28T04:51:54.247Z,7.43
2019-02-28T04:54:24.616Z,7.42
2019-02-28T04:56:54.994Z,7.39
2019-02-28T04:59:24.472Z,7.39
2019-02-28T05:01:53.945Z,7.36
2019-02-28T05:04:23.448Z,7.35
2019-02-28T05:06:55.230Z,7.31
2019-02-28T05:09:24.068Z,7.31
2019-02-28T05:11:53.776Z,7.31
2019-02-28T05:14:23.708Z,7.28
2019-02-28T05:16:53.867Z,7.25
2019-02-28T05:19:23.297Z,7.23
2019-02-28T05:21:53.507Z,7.21
2019-02-28T05:24:23.815Z,7.19
2019-02-28T05:26:53.306Z,7.18
2019-02-28T05:29:22.794Z,7.20
2019-02-28T05:31:52.235Z,7.19
2019-02-28T05:34:21.726Z,7.20
2019-02-28T05:36:51.002Z,7.18
2019-02-28T05:41:36.940Z,7.27
2019-02-28T05:44:07.319Z,7.23
2019-02-28T05:46:36.932Z,7.24
2019-02-28T05:49:08.764Z,7.23
2019-02-28T05:51:37.556Z,7.23
2019-02-28T05:54:07.029Z,7.22
2019-02-28T05:56:36.530Z,7.22
2019-02-28T05:59:06.020Z,7.23
2019-02-28T06:01:35.450Z,7.22
2019-02-28T06:04:04.904Z,7.22
2019-02-28T06:06:34.514Z,7.25
2019-02-28T06:09:05.628Z,7.28
2019-02-28T06:11:35.821Z,7.27
2019-02-28T06:14:05.453Z,7.25
2019-02-28T06:16:34.928Z,7.27
2019-02-28T06:19:07.963Z,7.27
2019-02-28T06:21:35.593Z,7.27
2019-02-28T06:24:05.040Z,7.28
2019-02-28T06:26:34.540Z,7.28
2019-02-28T06:29:05.079Z,7.29
2019-02-28T06:31:35.237Z,7.28
2019-02-28T06:34:08.492Z,7.29
2019-02-28T06:36:36.785Z,7.30
2019-02-28T06:39:07.209Z,7.33
2019-02-28T06:41:39.959Z,7.37
2019-02-28T06:44:08.803Z,7.41
2019-02-28T06:46:39.884Z,7.43
2019-02-28T06:49:09.598Z,7.45
2019-02-28T06:51:39.176Z,7.47
2019-02-28T06:54:08.824Z,7.48
2019-02-28T06:56:38.266Z,7.54
2019-02-28T06:59:18.261Z,7.60
2019-02-28T07:01:48.229Z,7.64
2019-02-28T07:04:17.678Z,7.71
2019-02-28T07:06:47.131Z,7.77
2019-02-28T07:09:16.620Z,7.82
2019-02-28T07:11:46.064Z,7.88
2019-02-28T07:14:15.529Z,7.93
2019-02-28T07:16:45.001Z,7.98
2019-02-28T07:19:14.455Z,8.03
2019-02-28T07:21:44.320Z,8.09
2019-02-28T07:24:14.551Z,8.16
2019-02-28T07:26:44.036Z,8.22
2019-02-28T07:29:13.534Z,8.28
2019-02-28T07:31:44.060Z,8.36
2019-02-28T07:34:19.596Z,8.42
2019-02-28T07:36:45.944Z,8.49
2019-02-28T07:39:15.424Z,8.57
2019-02-28T07:41:44.885Z,8.61
2019-02-28T07:44:14.361Z,8.68
2019-02-28T07:46:44.971Z,8.76
2019-02-28T07:49:14.455Z,8.82
2019-02-28T07:51:43.900Z,8.86
2019-02-28T07:54:15.823Z,8.91
2019-02-28T07:56:44.699Z,8.96
2019-02-28T07:59:14.170Z,9.01
2019-02-28T08:01:43.720Z,9.09
2019-02-28T08:04:18.047Z,9.14
2019-02-28T08:06:45.403Z,9.19
2019-02-28T08:09:28.660Z,9.22
2019-02-28T08:11:58.564Z,9.27
2019-02-28T08:14:28.006Z,9.34
2019-02-28T08:16:57.535Z,9.40
2019-02-28T08:19:28.187Z,9.47
2019-02-28T08:21:57.752Z,9.56
2019-02-28T08:24:27.154Z,9.62
2019-02-28T08:26:56.658Z,9.67
2019-02-28T08:29:26.163Z,9.72
2019-02-28T08:31:57.493Z,9.77
2019-02-28T08:34:26.771Z,9.82
2019-02-28T08:36:56.254Z,9.86
2019-02-28T08:39:25.745Z,9.93
2019-02-28T08:42:02.830Z,10.01
2019-02-28T08:44:26.720Z,10.09
2019-02-28T08:46:57.336Z,10.15
2019-02-28T08:49:26.876Z,10.21
2019-02-28T08:51:56.350Z,10.26
2019-02-28T08:54:27.244Z,10.31
2019-02-28T08:56:57.165Z,10.38
2019-02-28T08:59:26.608Z,10.40
2019-02-28T09:01:56.090Z,10.43
2019-02-28T09:04:25.536Z,10.43
2019-02-28T09:06:55.018Z,10.45
2019-02-28T09:09:24.500Z,10.50
2019-02-28T09:11:57.899Z,10.55
2019-02-28T09:14:25.122Z,10.62
2019-02-28T09:16:54.746Z,10.67
2019-02-28T09:19:24.610Z,10.78
2019-02-28T09:21:54.116Z,10.82
2019-02-28T09:24:23.551Z,10.84
2019-02-28T09:26:53.032Z,10.88
2019-02-28T09:29:22.552Z,10.99
2019-02-28T09:31:52.029Z,11.08
2019-02-28T09:34:21.668Z,11.12
2019-02-28T09:36:55.315Z,11.13
2019-02-28T09:39:22.336Z,11.15
2019-02-28T09:41:51.770Z,11.14
2019-02-28T09:44:21.267Z,11.14
2019-02-28T09:46:51.686Z,11.21
2019-02-28T09:49:21.277Z,11.31
2019-02-28T09:51:50.756Z,11.41
2019-02-28T09:54:21.349Z,11.39
2019-02-28T09:56:51.357Z,11.44
2019-02-28T09:59:20.849Z,11.53
2019-02-28T10:01:50.276Z,11.57
2019-02-28T10:04:19.782Z,11.65
2019-02-28T10:06:51.603Z,11.69
2019-02-28T10:09:20.391Z,11.68
2019-02-28T10:11:49.862Z,11.76
2019-02-28T10:14:19.347Z,11.84
2019-02-28T10:16:49.572Z,11.94
2019-02-28T10:19:20.040Z,12.04
2019-02-28T10:21:52.201Z,12.09
2019-02-28T10:24:20.890Z,12.18
2019-02-28T10:26:51.518Z,12.31
2019-02-28T10:29:21.750Z,12.46
2019-02-28T10:31:51.241Z,12.47
2019-02-28T10:34:23.406Z,12.54
2019-02-28T10:36:51.891Z,12.60
2019-02-28T10:39:21.418Z,12.65
2019-02-28T10:41:50.856Z,12.79
2019-02-28T10:44:20.357Z,12.94
2019-02-28T10:46:53.503Z,13.08
2019-02-28T10:49:23.955Z,13.17
2019-02-28T10:51:52.141Z,13.27
2019-02-28T10:54:21.618Z,13.35
2019-02-28T10:56:51.125Z,13.41
2019-02-28T10:59:21.402Z,13.42
2019-02-28T11:01:51.872Z,13.41
2019-02-28T11:04:21.743Z,13.50
2019-02-28T11:06:51.263Z,13.53
2019-02-28T11:09:21.818Z,13.50
2019-02-28T11:11:52.554Z,13.56
2019-02-28T11:14:22.221Z,13.64
2019-02-28T11:16:51.671Z,13.72
2019-02-28T11:19:21.609Z,13.77
2019-02-28T11:21:51.048Z,13.88
2019-02-28T11:24:23.589Z,14.02
2019-02-28T11:26:52.856Z,14.21
2019-02-28T11:29:22.322Z,14.37
2019-02-28T11:31:54.293Z,14.51
2019-02-28T11:34:23.119Z,14.65
2019-02-28T11:36:52.627Z,14.76
2019-02-28T11:39:22.247Z,14.76
2019-02-28T11:41:52.617Z,14.84
2019-02-28T11:44:23.210Z,14.93
2019-02-28T11:46:52.755Z,15.01
2019-02-28T11:49:22.269Z,15.06
2019-02-28T11:51:53.135Z,15.10
2019-02-28T11:54:22.891Z,15.14
2019-02-28T11:56:52.370Z,15.20
2019-02-28T11:59:24.201Z,15.16
2019-02-28T12:01:53.056Z,15.16
2019-02-28T12:04:22.556Z,15.20
2019-02-28T12:06:52.109Z,15.31
2019-02-28T12:09:21.608Z,15.38
2019-02-28T12:11:51.170Z,15.40
2019-02-28T12:14:20.608Z,15.37
2019-02-28T12:16:53.565Z,15.40
2019-02-28T12:19:21.402Z,15.53
2019-02-28T12:21:50.952Z,15.67
2019-02-28T12:24:20.555Z,15.72
2019-02-28T12:26:52.528Z,15.78
2019-02-28T12:29:21.285Z,15.81
2019-02-28T12:31:50.736Z,15.84
2019-02-28T12:34:20.287Z,15.86
2019-02-28T12:36:50.249Z,15.93
2019-02-28T12:39:20.243Z,15.96
2019-02-28T12:41:49.681Z,15.92
2019-02-28T12:44:19.111Z,15.89
2019-02-28T12:46:48.580Z,15.95
2019-02-28T12:49:21.831Z,16.00
2019-02-28T12:51:49.199Z,15.97
2019-02-28T12:54:18.725Z,15.93
2019-02-28T12:56:48.674Z,15.94
2019-02-28T12:59:18.187Z,15.85
2019-02-28T13:01:47.711Z,15.80
2019-02-28T13:04:17.411Z,15.75
2019-02-28T13:06:46.857Z,15.73
2019-02-28T13:09:17.843Z,15.73
2019-02-28T13:11:47.449Z,15.64
2019-02-28T13:14:16.964Z,15.50
2019-02-28T13:16:46.740Z,15.37
2019-02-28T13:19:19.799Z,15.31
2019-02-28T13:21:47.918Z,15.39
2019-02-28T13:24:17.360Z,15.45
2019-02-28T13:26:46.829Z,15.46
2019-02-28T13:29:16.313Z,15.34
2019-02-28T13:31:45.755Z,15.27
2019-02-28T13:34:15.231Z,15.25
2019-02-28T13:36:44.775Z,15.21
2019-02-28T13:39:14.212Z,15.14
2019-02-28T13:41:43.707Z,15.09
2019-02-28T13:44:13.227Z,15.03
2019-02-28T13:46:42.698Z,14.97
2019-02-28T13:49:15.376Z,14.96
2019-02-28T13:51:43.721Z,14.96
2019-02-28T13:54:13.152Z,14.89
2019-02-28T13:56:42.666Z,14.83
2019-02-28T13:59:12.103Z,14.81
2019-02-28T14:01:42.636Z,14.57
2019-02-28T14:04:12.139Z,14.35
2019-02-28T14:06:41.635Z,14.30
2019-02-28T14:09:11.150Z,14.34
2019-02-28T14:11:41.823Z,14.41
2019-02-28T14:14:12.936Z,14.43
2019-02-28T14:16:42.458Z,14.49
2019-02-28T14:19:13.248Z,14.52
2019-02-28T14:21:42.944Z,14.44
2019-02-28T14:24:12.392Z,14.32
2019-02-28T14:26:46.265Z,14.14
2019-02-28T14:29:14.221Z,13.97
2019-02-28T14:31:43.711Z,13.93
2019-02-28T14:34:13.219Z,13.92
2019-02-28T14:36:45.180Z,13.87
2019-02-28T14:39:13.922Z,13.88
2019-02-28T14:41:43.424Z,13.80
2019-02-28T14:44:12.866Z,13.75
2019-02-28T14:46:42.350Z,13.72
2019-02-28T14:49:13.413Z,13.70
2019-02-28T14:51:44.165Z,13.71
2019-02-28T14:54:13.646Z,13.72
2019-02-28T14:56:43.227Z,13.77
2019-02-28T14:59:13.657Z,13.71
2019-02-28T15:01:43.341Z,13.72
2019-02-28T15:04:12.819Z,13.74
2019-02-28T15:06:42.436Z,13.78
2019-02-28T15:09:14.692Z,13.82
2019-02-28T15:11:46.844Z,13.80
2019-02-28T15:14:15.353Z,13.78
2019-02-28T15:16:44.958Z,13.74
2019-02-28T15:19:14.595Z,13.71
2019-02-28T15:21:44.118Z,13.62
2019-02-28T15:24:13.610Z,13.52
2019-02-28T15:26:43.131Z,13.47
2019-02-28T15:29:12.576Z,13.41
2019-02-28T15:31:43.494Z,13.32
2019-02-28T15:34:13.280Z,13.31
2019-02-28T15:36:42.796Z,13.34
2019-02-28T15:39:12.309Z,13.37
2019-02-28T15:41:41.805Z,13.40
2019-02-28T15:44:11.246Z,13.42
2019-02-28T15:46:40.727Z,13.38
2019-02-28T15:49:10.964Z,13.33
2019-02-28T15:51:41.617Z,13.26
2019-02-28T15:54:11.082Z,13.12
2019-02-28T15:56:40.572Z,13.08
2019-02-28T15:59:11.528Z,13.06
2019-02-28T16:01:41.290Z,13.04
2019-02-28T16:04:10.727Z,12.99
2019-02-28T16:06:40.230Z,12.97
2019-02-28T16:09:12.099Z,12.92
2019-02-28T16:11:41.967Z,12.82
2019-02-28T16:14:14.487Z,12.73
2019-02-28T16:16:42.711Z,12.63
2019-02-28T16:19:12.296Z,12.59
2019-02-28T16:21:41.818Z,12.49
2019-02-28T16:24:11.390Z,12.43
2019-02-28T16:26:40.829Z,12.37
2019-02-28T16:29:10.403Z,12.37
2019-02-28T16:31:41.662Z,12.36
2019-02-28T16:34:11.109Z,12.32
2019-02-28T16:36:40.595Z,12.31
2019-02-28T16:39:16.804Z,12.29
2019-02-28T16:41:47.271Z,12.23
2019-02-28T16:44:16.804Z,12.17
2019-02-28T16:46:49.686Z,12.17
2019-02-28T16:49:17.970Z,12.15
2019-02-28T16:51:47.474Z,12.14
2019-02-28T16:54:19.316Z,12.17
2019-02-28T16:56:48.611Z,12.15
2019-02-28T16:59:18.132Z,12.13
2019-02-28T17:01:47.791Z,12.06
2019-02-28T17:04:18.085Z,12.00
2019-02-28T17:06:47.723Z,11.95
2019-02-28T17:09:18.815Z,11.86
2019-02-28T17:12:08.314Z,11.77
2019-02-28T17:14:38.096Z,11.71
2019-02-28T17:17:11.896Z,11.64
2019-02-28T17:19:40.762Z,11.60
2019-02-28T17:22:10.341Z,11.58
2019-02-28T17:24:39.901Z,11.53
2019-02-28T17:27:20.105Z,11.50
2019-02-28T17:29:51.226Z,11.49
2019-02-28T17:32:21.348Z,11.46
2019-02-28T17:34:50.865Z,11.44
2019-02-28T17:37:25.995Z,11.39
2019-02-28T17:39:51.991Z,11.33
2019-02-28T17:42:21.499Z,11.29
2019-02-28T17:45:00.255Z,11.23
2019-02-28T17:47:55.047Z,11.17
2019-02-28T17:50:30.623Z,11.10
2019-02-28T17:53:10.277Z,11.07
2019-02-28T17:56:03.925Z,11.04
2019-02-28T17:59:04.455Z,10.99
2019-02-28T18:02:01.545Z,10.95
2019-02-28T18:04:58.952Z,10.92
2019-02-28T18:08:03.998Z,10.88
2019-02-28T18:10:51.308Z,10.83
2019-02-28T18:13:29.879Z,10.79
2019-02-28T18:16:04.828Z,10.75
2019-02-28T18:18:53.934Z,10.71
2019-02-28T18:21:51.355Z,10.66
2019-02-28T18:24:29.564Z,10.64
2019-02-28T18:27:13.793Z,10.60
2019-02-28T18:30:02.936Z,10.56
2019-02-28T18:32:33.296Z,10.54
2019-02-28T18:35:06.837Z,10.52
2019-02-28T18:37:36.384Z,10.51
2019-02-28T18:40:07.917Z,10.49
2019-02-28T18:42:38.317Z,10.48
2019-02-28T18:45:10.077Z,10.46
2019-02-28T18:47:40.802Z,10.46
2019-02-28T18:50:10.749Z,10.45
2019-02-28T18:52:40.213Z,10.46
2019-02-28T18:55:09.758Z,10.45
2019-02-28T18:57:39.269Z,10.47
2019-02-28T19:00:13.237Z,10.48
2019-02-28T19:02:42.708Z,10.51
2019-02-28T19:05:12.447Z,10.57
2019-02-28T19:07:42.070Z,10.62
2019-02-28T19:10:11.794Z,10.60
2019-02-28T19:12:42.553Z,10.60
2019-02-28T19:15:16.710Z,10.57
2019-02-28T19:17:46.192Z,10.54
2019-02-28T19:20:16.629Z,10.52
2019-02-28T19:22:46.168Z,10.49
2019-02-28T19:25:15.697Z,10.45
2019-02-28T19:27:45.187Z,10.42
2019-02-28T19:30:15.921Z,10.39
2019-02-28T19:32:45.418Z,10.34
2019-02-28T19:35:15.014Z,10.30
2019-02-28T19:37:44.741Z,10.26
2019-02-28T19:40:14.700Z,10.22
2019-02-28T19:42:44.270Z,10.24
2019-02-28T19:45:23.200Z,10.24
2019-02-28T19:47:52.825Z,10.28
2019-02-28T19:50:22.633Z,10.29
2019-02-28T19:52:54.012Z,10.29
2019-02-28T19:55:23.471Z,10.26
2019-02-28T19:57:52.960Z,10.25
2019-02-28T20:00:22.873Z,10.24
2019-02-28T20:02:52.395Z,10.23
2019-02-28T20:05:22.201Z,10.26
2019-02-28T20:07:52.100Z,10.30
2019-02-28T20:10:22.070Z,10.36
2019-02-28T20:12:52.066Z,10.44
2019-02-28T20:15:23.363Z,10.50
2019-02-28T20:17:52.857Z,10.54
2019-02-28T20:20:24.549Z,10.56
2019-02-28T20:22:54.026Z,10.60
2019-02-28T20:25:24.891Z,10.66
2019-02-28T20:27:55.792Z,10.70
2019-02-28T20:30:26.876Z,10.76
2019-02-28T20:32:56.461Z,10.80
2019-02-28T20:35:26.991Z,10.82
2019-02-28T20:37:56.595Z,10.86
2019-02-28T20:40:35.436Z,10.85
2019-02-28T20:43:05.147Z,10.86
2019-02-28T20:45:34.634Z,10.90
2019-02-28T20:48:04.453Z,10.93
2019-02-28T20:50:40.376Z,10.95
2019-02-28T20:53:11.003Z,10.94
2019-02-28T20:55:40.490Z,10.93
2019-02-28T20:58:10.048Z,10.91
2019-02-28T21:00:39.611Z,10.91
2019-02-28T21:03:09.231Z,10.92
2019-02-28T21:05:38.740Z,10.89
2019-02-28T21:08:08.292Z,10.84
2019-02-28T21:10:37.744Z,10.81
2019-02-28T21:13:07.292Z,10.79
2019-02-28T21:15:36.805Z,10.74
2019-02-28T21:18:06.468Z,10.70
2019-02-28T21:20:35.966Z,10.61
2019-02-28T21:23:05.502Z,10.56
2019-02-28T21:25:35.002Z,10.56
2019-02-28T21:28:04.796Z,10.55
2019-02-28T21:30:34.491Z,10.55
2019-02-28T21:33:05.571Z,10.49
2019-02-28T21:35:35.079Z,10.46
2019-02-28T21:38:05.124Z,10.49
2019-02-28T21:40:34.877Z,10.44
2019-02-28T21:43:04.751Z,10.42
2019-02-28T21:45:34.693Z,10.39
2019-02-28T21:48:04.890Z,10.31
2019-02-28T21:50:34.491Z,10.28
2019-02-28T21:53:06.176Z,10.28
2019-02-28T21:55:35.613Z,10.34
2019-02-28T21:58:05.170Z,10.40
2019-02-28T22:00:34.648Z,10.46
2019-02-28T22:03:05.672Z,10.51
2019-02-28T22:05:35.236Z,10.56
2019-02-28T22:08:04.755Z,10.60
2019-02-28T22:10:34.267Z,10.64
2019-02-28T22:13:04.187Z,10.64
2019-02-28T22:15:33.974Z,10.67
2019-02-28T22:18:03.886Z,10.68
2019-02-28T22:20:33.448Z,10.71
2019-02-28T22:23:03.212Z,10.69
2019-02-28T22:25:32.696Z,10.71
2019-02-28T22:28:02.185Z,10.70
2019-02-28T22:30:33.288Z,10.69
2019-02-28T22:33:20.658Z,10.71
2019-02-28T22:35:51.770Z,10.73
2019-02-28T22:38:21.351Z,10.72
2019-02-28T22:40:50.908Z,10.71
2019-02-28T22:43:20.386Z,10.70
2019-02-28T22:45:49.875Z,10.70
2019-02-28T22:48:19.318Z,10.70
2019-02-28T22:50:48.807Z,10.66
2019-02-28T22:53:18.270Z,10.63
2019-02-28T22:55:47.800Z,10.65
2019-02-28T22:58:17.422Z,10.65
2019-02-28T23:01:00.558Z,10.62
2019-02-28T23:03:33.632Z,10.54
2019-02-28T23:06:03.330Z,10.52
2019-02-28T23:08:32.903Z,10.55
2019-02-28T23:11:02.465Z,10.55
2019-02-28T23:13:31.924Z,10.56
2019-02-28T23:16:01.431Z,10.58
2019-02-28T23:18:30.914Z,10.61
2019-02-28T23:21:00.401Z,10.67
2019-02-28T23:23:29.884Z,10.66
2019-02-28T23:26:11.063Z,10.65
2019-02-28T23:28:46.489Z,10.65
2019-02-28T23:31:31.625Z,10.70
2019-02-28T23:34:06.797Z,10.73
2019-02-28T23:36:36.245Z,10.77
2019-02-28T23:39:08.775Z,10.79
2019-02-28T23:41:39.871Z,10.81
2019-02-28T23:44:09.320Z,10.83
2019-02-28T23:46:38.819Z,10.86
2019-02-28T23:49:08.279Z,10.91
2019-02-28T23:51:39.102Z,10.93
2019-02-28T23:54:08.586Z,10.96
2019-02-28T23:56:38.507Z,10.94
2019-02-28T23:59:08.055Z,10.94
